Homer, Michigan
Current Conditions -  °F | °C
As of 1:33 AM on Wednesday 28 Jan 2015 (Local Time) from KRMY Reporting Station
Clear Clear  
Wind Chill:   Ceiling: Unl
Heat Index:   Visibility: 10mi
Dew Point:   Wind: 0mph
Humidity: 87%   Direction: NA
Pressure: 30.23"   Gusts: NA
Location:  42.15°N, 84.81°W
Report Text: KRMY 280633Z AUTO 00000KT 10SM CLR M13/M15 A3023 RMK AO2 T11331150
Loading
Personal Weather Stations






























Interactive Weather Map New forecast layout! Learn more

10-Day Weather Forecast

Advertisements
Track Severe Weather on mobile